sensor_id;sensor_type;location;lat;lon;timestamp;pressure;altitude;pressure_sealevel;temperature;humidity
74794;BME280;63320;50.768;6.724;2023-05-29T00:02:16;100584.03;;;15.98;60.94
74794;BME280;63320;50.768;6.724;2023-05-29T00:04:43;100583.94;;;15.86;61.29
74794;BME280;63320;50.768;6.724;2023-05-29T00:07:08;100587.69;;;15.69;61.82
74794;BME280;63320;50.768;6.724;2023-05-29T00:09:34;100593.44;;;15.75;62.24
74794;BME280;63320;50.768;6.724;2023-05-29T00:11:59;100591.22;;;15.96;61.13
74794;BME280;63320;50.768;6.724;2023-05-29T00:14:25;100599.41;;;15.79;62.15
74794;BME280;63320;50.768;6.724;2023-05-29T00:16:51;100601.41;;;15.75;62.00
74794;BME280;63320;50.768;6.724;2023-05-29T00:19:16;100600.00;;;15.41;62.85
74794;BME280;63320;50.768;6.724;2023-05-29T00:21:43;100598.09;;;15.29;63.17
74794;BME280;63320;50.768;6.724;2023-05-29T00:24:08;100604.13;;;15.45;63.03
74794;BME280;63320;50.768;6.724;2023-05-29T00:26:34;100608.88;;;15.54;62.97
74794;BME280;63320;50.768;6.724;2023-05-29T00:28:59;100602.25;;;15.76;62.50
74794;BME280;63320;50.768;6.724;2023-05-29T00:31:24;100608.88;;;15.54;62.50
74794;BME280;63320;50.768;6.724;2023-05-29T00:33:50;100599.50;;;15.49;63.25
74794;BME280;63320;50.768;6.724;2023-05-29T00:36:15;100615.97;;;15.54;62.62
74794;BME280;63320;50.768;6.724;2023-05-29T00:38:42;100614.53;;;14.91;64.82
74794;BME280;63320;50.768;6.724;2023-05-29T00:41:08;100609.75;;;15.26;63.67
74794;BME280;63320;50.768;6.724;2023-05-29T00:43:33;100611.34;;;15.29;63.68
74794;BME280;63320;50.768;6.724;2023-05-29T00:45:59;100614.22;;;14.96;64.78
74794;BME280;63320;50.768;6.724;2023-05-29T00:48:24;100606.59;;;15.06;64.47
74794;BME280;63320;50.768;6.724;2023-05-29T00:50:50;100604.34;;;15.14;64.29
74794;BME280;63320;50.768;6.724;2023-05-29T00:53:16;100604.13;;;15.31;63.51
74794;BME280;63320;50.768;6.724;2023-05-29T00:55:42;100605.31;;;14.68;65.25
74794;BME280;63320;50.768;6.724;2023-05-29T00:58:08;100599.41;;;15.08;64.80
74794;BME280;63320;50.768;6.724;2023-05-29T01:00:34;100593.75;;;15.14;64.20
74794;BME280;63320;50.768;6.724;2023-05-29T01:03:00;100598.00;;;15.02;64.01
74794;BME280;63320;50.768;6.724;2023-05-29T01:05:28;100600.09;;;15.11;63.64
74794;BME280;63320;50.768;6.724;2023-05-29T01:07:53;100596.78;;;15.22;63.45
74794;BME280;63320;50.768;6.724;2023-05-29T01:10:19;100603.22;;;15.32;62.46
74794;BME280;63320;50.768;6.724;2023-05-29T01:12:49;100597.63;;;15.08;63.30
74794;BME280;63320;50.768;6.724;2023-05-29T01:15:28;100607.09;;;14.68;64.85
74794;BME280;63320;50.768;6.724;2023-05-29T01:18:05;100606.75;;;14.88;63.87
74794;BME280;63320;50.768;6.724;2023-05-29T01:20:36;100610.72;;;14.95;63.65
74794;BME280;63320;50.768;6.724;2023-05-29T01:23:13;100606.34;;;14.80;64.12
74794;BME280;63320;50.768;6.724;2023-05-29T01:25:58;100606.38;;;14.94;63.28
74794;BME280;63320;50.768;6.724;2023-05-29T01:28:38;100616.16;;;14.64;64.13
74794;BME280;63320;50.768;6.724;2023-05-29T01:31:07;100627.22;;;14.70;64.10
74794;BME280;63320;50.768;6.724;2023-05-29T01:33:33;100622.75;;;14.87;63.58
74794;BME280;63320;50.768;6.724;2023-05-29T01:35:58;100626.75;;;14.64;64.33
74794;BME280;63320;50.768;6.724;2023-05-29T01:38:23;100621.41;;;14.80;63.28
74794;BME280;63320;50.768;6.724;2023-05-29T01:40:49;100619.13;;;14.73;63.26
74794;BME280;63320;50.768;6.724;2023-05-29T01:43:14;100625.13;;;14.45;63.54
74794;BME280;63320;50.768;6.724;2023-05-29T01:45:41;100615.94;;;14.53;63.82
74794;BME280;63320;50.768;6.724;2023-05-29T01:48:07;100624.34;;;13.97;65.63
74794;BME280;63320;50.768;6.724;2023-05-29T01:50:33;100621.00;;;13.94;65.67
74794;BME280;63320;50.768;6.724;2023-05-29T01:52:59;100632.25;;;14.29;64.47
74794;BME280;63320;50.768;6.724;2023-05-29T01:55:25;100635.16;;;14.56;63.11
74794;BME280;63320;50.768;6.724;2023-05-29T01:57:50;100637.69;;;14.42;63.91
74794;BME280;63320;50.768;6.724;2023-05-29T02:00:17;100628.31;;;14.20;64.13
74794;BME280;63320;50.768;6.724;2023-05-29T02:02:44;100632.59;;;13.76;65.42
74794;BME280;63320;50.768;6.724;2023-05-29T02:05:09;100637.47;;;13.99;64.63
74794;BME280;63320;50.768;6.724;2023-05-29T02:07:35;100635.16;;;13.77;64.63
74794;BME280;63320;50.768;6.724;2023-05-29T02:10:00;100638.06;;;13.88;64.63
74794;BME280;63320;50.768;6.724;2023-05-29T02:12:26;100631.13;;;13.70;64.68
74794;BME280;63320;50.768;6.724;2023-05-29T02:14:51;100638.44;;;13.65;65.14
74794;BME280;63320;50.768;6.724;2023-05-29T02:17:16;100640.09;;;13.83;64.50
74794;BME280;63320;50.768;6.724;2023-05-29T02:19:43;100650.34;;;13.89;64.09
74794;BME280;63320;50.768;6.724;2023-05-29T02:22:08;100653.22;;;13.69;64.62
74794;BME280;63320;50.768;6.724;2023-05-29T02:24:33;100647.66;;;13.58;65.13
74794;BME280;63320;50.768;6.724;2023-05-29T02:26:59;100659.41;;;13.52;65.35
74794;BME280;63320;50.768;6.724;2023-05-29T02:29:24;100661.19;;;13.52;65.25
74794;BME280;63320;50.768;6.724;2023-05-29T02:31:49;100658.25;;;13.89;63.77
74794;BME280;63320;50.768;6.724;2023-05-29T02:34:15;100661.13;;;13.69;63.93
74794;BME280;63320;50.768;6.724;2023-05-29T02:36:42;100652.34;;;13.53;64.92
74794;BME280;63320;50.768;6.724;2023-05-29T02:39:07;100660.75;;;13.77;64.09
74794;BME280;63320;50.768;6.724;2023-05-29T02:41:32;100661.75;;;13.74;64.30
74794;BME280;63320;50.768;6.724;2023-05-29T02:43:58;100666.59;;;12.98;66.70
74794;BME280;63320;50.768;6.724;2023-05-29T02:46:23;100672.25;;;13.08;66.70
74794;BME280;63320;50.768;6.724;2023-05-29T02:48:48;100670.31;;;13.29;65.59
74794;BME280;63320;50.768;6.724;2023-05-29T02:51:14;100671.25;;;12.76;67.35
74794;BME280;63320;50.768;6.724;2023-05-29T02:53:40;100670.31;;;12.94;66.74
74794;BME280;63320;50.768;6.724;2023-05-29T02:56:07;100674.88;;;12.73;67.72
74794;BME280;63320;50.768;6.724;2023-05-29T02:58:32;100677.16;;;12.81;67.89
74794;BME280;63320;50.768;6.724;2023-05-29T03:00:57;100677.34;;;12.59;67.89
74794;BME280;63320;50.768;6.724;2023-05-29T03:03:23;100676.13;;;13.18;66.85
74794;BME280;63320;50.768;6.724;2023-05-29T03:05:48;100680.19;;;12.90;66.98
74794;BME280;63320;50.768;6.724;2023-05-29T03:08:13;100683.44;;;12.78;67.53
74794;BME280;63320;50.768;6.724;2023-05-29T03:10:40;100685.13;;;12.62;68.60
74794;BME280;63320;50.768;6.724;2023-05-29T03:13:06;100679.34;;;12.36;69.50
74794;BME280;63320;50.768;6.724;2023-05-29T03:15:31;100672.16;;;12.57;68.12
74794;BME280;63320;50.768;6.724;2023-05-29T03:17:56;100674.84;;;12.38;68.96
74794;BME280;63320;50.768;6.724;2023-05-29T03:20:22;100679.81;;;12.81;68.02
74794;BME280;63320;50.768;6.724;2023-05-29T03:22:47;100680.22;;;12.54;68.72
74794;BME280;63320;50.768;6.724;2023-05-29T03:25:14;100684.91;;;12.84;68.31
74794;BME280;63320;50.768;6.724;2023-05-29T03:27:42;100689.50;;;12.80;68.62
74794;BME280;63320;50.768;6.724;2023-05-29T03:30:08;100683.34;;;12.26;69.87
74794;BME280;63320;50.768;6.724;2023-05-29T03:32:33;100690.53;;;12.59;68.99
74794;BME280;63320;50.768;6.724;2023-05-29T03:34:59;100694.56;;;12.49;69.47
74794;BME280;63320;50.768;6.724;2023-05-29T03:37:24;100699.50;;;12.37;70.54
74794;BME280;63320;50.768;6.724;2023-05-29T03:39:49;100700.25;;;12.58;69.29
74794;BME280;63320;50.768;6.724;2023-05-29T03:42:15;100698.03;;;12.49;70.15
74794;BME280;63320;50.768;6.724;2023-05-29T03:44:41;100696.88;;;12.55;68.95
74794;BME280;63320;50.768;6.724;2023-05-29T03:47:07;100706.63;;;12.72;68.79
74794;BME280;63320;50.768;6.724;2023-05-29T03:49:32;100696.25;;;12.50;70.48
74794;BME280;63320;50.768;6.724;2023-05-29T03:51:57;100701.44;;;12.87;68.49
74794;BME280;63320;50.768;6.724;2023-05-29T03:54:23;100694.72;;;12.46;69.27
74794;BME280;63320;50.768;6.724;2023-05-29T03:56:48;100708.47;;;12.69;68.57
74794;BME280;63320;50.768;6.724;2023-05-29T03:59:13;100713.00;;;12.85;68.63
74794;BME280;63320;50.768;6.724;2023-05-29T04:01:40;100704.22;;;12.31;70.47
74794;BME280;63320;50.768;6.724;2023-05-29T04:04:05;100709.28;;;12.35;70.62
74794;BME280;63320;50.768;6.724;2023-05-29T04:06:31;100715.53;;;12.52;70.63
74794;BME280;63320;50.768;6.724;2023-05-29T04:08:56;100712.59;;;12.58;69.93
74794;BME280;63320;50.768;6.724;2023-05-29T04:11:21;100711.84;;;12.18;70.96
74794;BME280;63320;50.768;6.724;2023-05-29T04:13:47;100715.19;;;12.40;70.09
74794;BME280;63320;50.768;6.724;2023-05-29T04:16:12;100716.63;;;12.65;70.17
74794;BME280;63320;50.768;6.724;2023-05-29T04:18:39;100724.81;;;12.95;68.63
74794;BME280;63320;50.768;6.724;2023-05-29T04:21:04;100734.06;;;12.86;68.61
74794;BME280;63320;50.768;6.724;2023-05-29T04:23:30;100727.97;;;12.84;68.72
74794;BME280;63320;50.768;6.724;2023-05-29T04:25:55;100745.47;;;12.87;68.81
74794;BME280;63320;50.768;6.724;2023-05-29T04:28:20;100739.03;;;13.10;67.66
74794;BME280;63320;50.768;6.724;2023-05-29T04:30:46;100736.94;;;12.99;68.32
74794;BME280;63320;50.768;6.724;2023-05-29T04:33:11;100745.41;;;13.06;67.97
74794;BME280;63320;50.768;6.724;2023-05-29T04:35:38;100742.16;;;13.18;67.48
74794;BME280;63320;50.768;6.724;2023-05-29T04:38:03;100747.31;;;12.85;68.27
74794;BME280;63320;50.768;6.724;2023-05-29T04:40:28;100750.75;;;13.04;68.44
74794;BME280;63320;50.768;6.724;2023-05-29T04:42:54;100748.63;;;12.76;68.80
74794;BME280;63320;50.768;6.724;2023-05-29T04:45:20;100749.03;;;13.22;67.80
74794;BME280;63320;50.768;6.724;2023-05-29T04:47:45;100751.13;;;13.33;67.41
74794;BME280;63320;50.768;6.724;2023-05-29T04:50:11;100749.72;;;13.43;67.12
74794;BME280;63320;50.768;6.724;2023-05-29T04:52:37;100746.66;;;13.16;67.74
74794;BME280;63320;50.768;6.724;2023-05-29T04:55:03;100748.09;;;12.87;69.03
74794;BME280;63320;50.768;6.724;2023-05-29T04:57:29;100753.63;;;12.63;69.66
74794;BME280;63320;50.768;6.724;2023-05-29T04:59:54;100754.16;;;12.89;69.06
74794;BME280;63320;50.768;6.724;2023-05-29T05:02:19;100760.63;;;13.18;67.80
74794;BME280;63320;50.768;6.724;2023-05-29T05:04:45;100762.16;;;13.05;67.92
74794;BME280;63320;50.768;6.724;2023-05-29T05:07:10;100769.31;;;13.03;68.62
74794;BME280;63320;50.768;6.724;2023-05-29T05:09:37;100768.28;;;13.24;67.59
74794;BME280;63320;50.768;6.724;2023-05-29T05:12:02;100764.66;;;12.90;68.40
74794;BME280;63320;50.768;6.724;2023-05-29T05:14:28;100775.69;;;12.99;68.02
74794;BME280;63320;50.768;6.724;2023-05-29T05:16:53;100777.00;;;13.26;67.09
74794;BME280;63320;50.768;6.724;2023-05-29T05:19:19;100775.75;;;13.14;67.88
74794;BME280;63320;50.768;6.724;2023-05-29T05:21:44;100780.31;;;12.93;67.90
74794;BME280;63320;50.768;6.724;2023-05-29T05:24:10;100773.34;;;12.92;68.42
74794;BME280;63320;50.768;6.724;2023-05-29T05:26:36;100782.44;;;13.04;67.69
74794;BME280;63320;50.768;6.724;2023-05-29T05:29:02;100783.84;;;13.11;67.49
74794;BME280;63320;50.768;6.724;2023-05-29T05:31:27;100781.25;;;13.29;66.59
74794;BME280;63320;50.768;6.724;2023-05-29T05:33:52;100782.50;;;13.39;66.38
74794;BME280;63320;50.768;6.724;2023-05-29T05:36:18;100787.59;;;13.25;66.92
74794;BME280;63320;50.768;6.724;2023-05-29T05:38:43;100788.94;;;13.33;66.45
74794;BME280;63320;50.768;6.724;2023-05-29T05:41:09;100805.00;;;13.29;66.66
74794;BME280;63320;50.768;6.724;2023-05-29T05:43:35;100795.78;;;13.37;66.13
74794;BME280;63320;50.768;6.724;2023-05-29T05:46:01;100793.22;;;13.36;66.05
74794;BME280;63320;50.768;6.724;2023-05-29T05:48:26;100795.16;;;13.50;65.61
74794;BME280;63320;50.768;6.724;2023-05-29T05:50:51;100798.88;;;13.63;64.96
74794;BME280;63320;50.768;6.724;2023-05-29T05:53:17;100786.94;;;13.19;66.65
74794;BME280;63320;50.768;6.724;2023-05-29T05:55:42;100797.47;;;13.21;67.18
74794;BME280;63320;50.768;6.724;2023-05-29T05:58:08;100789.09;;;13.30;66.73
74794;BME280;63320;50.768;6.724;2023-05-29T06:00:34;100792.75;;;13.28;66.57
74794;BME280;63320;50.768;6.724;2023-05-29T06:03:00;100798.72;;;13.48;65.87
74794;BME280;63320;50.768;6.724;2023-05-29T06:05:25;100802.00;;;13.36;66.53
74794;BME280;63320;50.768;6.724;2023-05-29T06:07:51;100807.56;;;12.94;67.05
74794;BME280;63320;50.768;6.724;2023-05-29T06:10:16;100796.13;;;13.12;66.74
74794;BME280;63320;50.768;6.724;2023-05-29T06:12:41;100806.38;;;13.18;67.21
74794;BME280;63320;50.768;6.724;2023-05-29T06:15:07;100808.91;;;13.39;66.08
74794;BME280;63320;50.768;6.724;2023-05-29T06:17:34;100814.59;;;13.31;66.48
74794;BME280;63320;50.768;6.724;2023-05-29T06:20:00;100815.28;;;13.69;65.44
74794;BME280;63320;50.768;6.724;2023-05-29T06:22:25;100819.25;;;13.26;66.16
74794;BME280;63320;50.768;6.724;2023-05-29T06:24:50;100817.38;;;13.63;65.24
74794;BME280;63320;50.768;6.724;2023-05-29T06:27:16;100816.13;;;13.70;64.98
74794;BME280;63320;50.768;6.724;2023-05-29T06:29:41;100818.44;;;13.93;64.21
74794;BME280;63320;50.768;6.724;2023-05-29T06:32:06;100819.03;;;13.98;64.16
74794;BME280;63320;50.768;6.724;2023-05-29T06:34:33;100823.53;;;14.14;63.99
74794;BME280;63320;50.768;6.724;2023-05-29T06:36:58;100820.19;;;13.77;64.33
74794;BME280;63320;50.768;6.724;2023-05-29T06:39:24;100820.34;;;13.57;65.55
74794;BME280;63320;50.768;6.724;2023-05-29T06:41:49;100818.75;;;13.35;66.11
74794;BME280;63320;50.768;6.724;2023-05-29T06:44:14;100827.00;;;13.81;64.64
74794;BME280;63320;50.768;6.724;2023-05-29T06:46:40;100823.94;;;13.56;65.71
74794;BME280;63320;50.768;6.724;2023-05-29T06:49:05;100820.31;;;13.74;64.69
74794;BME280;63320;50.768;6.724;2023-05-29T06:51:33;100816.59;;;13.78;64.36
74794;BME280;63320;50.768;6.724;2023-05-29T06:53:58;100820.66;;;13.68;64.67
74794;BME280;63320;50.768;6.724;2023-05-29T06:56:23;100819.19;;;13.95;63.94
74794;BME280;63320;50.768;6.724;2023-05-29T06:58:48;100815.34;;;13.68;64.68
74794;BME280;63320;50.768;6.724;2023-05-29T07:01:14;100822.97;;;13.91;64.13
74794;BME280;63320;50.768;6.724;2023-05-29T07:03:39;100820.19;;;13.77;64.83
74794;BME280;63320;50.768;6.724;2023-05-29T07:06:05;100820.38;;;13.90;64.33
74794;BME280;63320;50.768;6.724;2023-05-29T07:08:32;100812.44;;;13.90;64.28
74794;BME280;63320;50.768;6.724;2023-05-29T07:10:57;100815.63;;;13.96;64.32
74794;BME280;63320;50.768;6.724;2023-05-29T07:13:24;100812.50;;;14.06;64.63
74794;BME280;63320;50.768;6.724;2023-05-29T07:15:50;100819.94;;;14.15;64.29
74794;BME280;63320;50.768;6.724;2023-05-29T07:18:16;100820.88;;;14.14;63.59
74794;BME280;63320;50.768;6.724;2023-05-29T07:20:41;100827.28;;;14.25;63.34
74794;BME280;63320;50.768;6.724;2023-05-29T07:23:06;100828.84;;;14.30;62.99
74794;BME280;63320;50.768;6.724;2023-05-29T07:25:33;100825.44;;;14.28;62.99
74794;BME280;63320;50.768;6.724;2023-05-29T07:27:59;100832.25;;;14.49;62.99
74794;BME280;63320;50.768;6.724;2023-05-29T07:30:24;100815.50;;;14.48;62.75
74794;BME280;63320;50.768;6.724;2023-05-29T07:32:50;100830.03;;;14.24;63.21
74794;BME280;63320;50.768;6.724;2023-05-29T07:35:15;100827.03;;;14.30;63.18
74794;BME280;63320;50.768;6.724;2023-05-29T07:37:40;100827.13;;;14.29;63.70
74794;BME280;63320;50.768;6.724;2023-05-29T07:40:06;100823.75;;;14.42;63.14
74794;BME280;63320;50.768;6.724;2023-05-29T07:42:33;100818.28;;;14.45;63.22
74794;BME280;63320;50.768;6.724;2023-05-29T07:44:59;100826.81;;;14.35;63.23
74794;BME280;63320;50.768;6.724;2023-05-29T07:47:24;100818.84;;;14.52;63.07
74794;BME280;63320;50.768;6.724;2023-05-29T07:49:50;100825.50;;;14.75;62.47
74794;BME280;63320;50.768;6.724;2023-05-29T07:52:15;100824.59;;;14.43;62.78
74794;BME280;63320;50.768;6.724;2023-05-29T07:54:41;100830.59;;;14.46;62.99
74794;BME280;63320;50.768;6.724;2023-05-29T07:57:06;100824.91;;;14.70;61.83
74794;BME280;63320;50.768;6.724;2023-05-29T07:59:33;100824.16;;;14.52;62.96
74794;BME280;63320;50.768;6.724;2023-05-29T08:01:58;100822.69;;;14.78;62.28
74794;BME280;63320;50.768;6.724;2023-05-29T08:04:23;100834.88;;;14.65;62.63
74794;BME280;63320;50.768;6.724;2023-05-29T08:06:49;100832.44;;;14.44;62.70
74794;BME280;63320;50.768;6.724;2023-05-29T08:09:14;100824.00;;;14.71;62.70
74794;BME280;63320;50.768;6.724;2023-05-29T08:11:39;100832.59;;;15.06;61.98
74794;BME280;63320;50.768;6.724;2023-05-29T08:14:05;100840.00;;;15.15;62.00
74794;BME280;63320;50.768;6.724;2023-05-29T08:16:31;100837.97;;;15.05;61.54
74794;BME280;63320;50.768;6.724;2023-05-29T08:18:57;100836.25;;;15.03;61.35
74794;BME280;63320;50.768;6.724;2023-05-29T08:21:22;100842.75;;;15.14;60.79
74794;BME280;63320;50.768;6.724;2023-05-29T08:23:47;100838.41;;;14.97;61.07
74794;BME280;63320;50.768;6.724;2023-05-29T08:26:13;100839.34;;;15.12;61.35
74794;BME280;63320;50.768;6.724;2023-05-29T08:28:38;100831.41;;;15.26;60.74
74794;BME280;63320;50.768;6.724;2023-05-29T08:31:03;100838.69;;;15.38;60.59
74794;BME280;63320;50.768;6.724;2023-05-29T08:33:30;100835.88;;;15.25;60.73
74794;BME280;63320;50.768;6.724;2023-05-29T08:35:56;100836.97;;;15.37;61.25
74794;BME280;63320;50.768;6.724;2023-05-29T08:38:22;100830.13;;;15.33;60.73
74794;BME280;63320;50.768;6.724;2023-05-29T08:40:48;100839.94;;;15.47;60.91
74794;BME280;63320;50.768;6.724;2023-05-29T08:43:16;100841.44;;;15.51;60.40
74794;BME280;63320;50.768;6.724;2023-05-29T08:45:43;100836.47;;;15.61;60.73
74794;BME280;63320;50.768;6.724;2023-05-29T08:48:09;100835.97;;;15.54;60.74
74794;BME280;63320;50.768;6.724;2023-05-29T08:50:38;100830.66;;;15.70;61.44
74794;BME280;63320;50.768;6.724;2023-05-29T08:53:09;100830.28;;;15.76;59.54
74794;BME280;63320;50.768;6.724;2023-05-29T08:55:34;100835.59;;;15.90;59.92
74794;BME280;63320;50.768;6.724;2023-05-29T08:58:00;100848.50;;;15.96;59.24
74794;BME280;63320;50.768;6.724;2023-05-29T09:00:26;100842.34;;;15.96;58.96
74794;BME280;63320;50.768;6.724;2023-05-29T09:02:51;100837.63;;;15.87;59.57
74794;BME280;63320;50.768;6.724;2023-05-29T09:05:17;100832.78;;;16.08;60.31
74794;BME280;63320;50.768;6.724;2023-05-29T09:07:43;100835.63;;;16.04;59.05
74794;BME280;63320;50.768;6.724;2023-05-29T09:10:09;100831.94;;;15.93;59.73
74794;BME280;63320;50.768;6.724;2023-05-29T09:12:35;100842.94;;;16.29;59.51
74794;BME280;63320;50.768;6.724;2023-05-29T09:15:01;100840.47;;;16.12;58.68
74794;BME280;63320;50.768;6.724;2023-05-29T09:17:30;100847.22;;;16.32;58.71
74794;BME280;63320;50.768;6.724;2023-05-29T09:19:56;100846.63;;;16.41;57.72
74794;BME280;63320;50.768;6.724;2023-05-29T09:22:21;100843.59;;;16.47;58.40
74794;BME280;63320;50.768;6.724;2023-05-29T09:24:48;100852.59;;;16.30;58.04
74794;BME280;63320;50.768;6.724;2023-05-29T09:27:14;100854.41;;;16.30;58.81
74794;BME280;63320;50.768;6.724;2023-05-29T09:29:40;100842.81;;;16.45;58.82
74794;BME280;63320;50.768;6.724;2023-05-29T09:32:07;100847.97;;;16.48;58.61
74794;BME280;63320;50.768;6.724;2023-05-29T09:34:32;100840.25;;;16.58;58.14
74794;BME280;63320;50.768;6.724;2023-05-29T09:37:01;100841.88;;;16.75;58.06
74794;BME280;63320;50.768;6.724;2023-05-29T09:39:26;100842.13;;;16.70;59.17
74794;BME280;63320;50.768;6.724;2023-05-29T09:41:53;100836.28;;;16.79;59.20
74794;BME280;63320;50.768;6.724;2023-05-29T09:44:18;100834.28;;;16.83;57.92
74794;BME280;63320;50.768;6.724;2023-05-29T09:46:44;100848.81;;;17.04;58.09
74794;BME280;63320;50.768;6.724;2023-05-29T09:49:11;100842.94;;;16.99;57.18
74794;BME280;63320;50.768;6.724;2023-05-29T09:51:36;100842.34;;;17.08;56.69
74794;BME280;63320;50.768;6.724;2023-05-29T09:54:13;100838.25;;;17.17;55.68
74794;BME280;63320;50.768;6.724;2023-05-29T09:56:39;100844.66;;;17.00;55.67
74794;BME280;63320;50.768;6.724;2023-05-29T09:59:07;100830.88;;;17.08;57.07
74794;BME280;63320;50.768;6.724;2023-05-29T10:01:35;100835.75;;;17.41;56.04
74794;BME280;63320;50.768;6.724;2023-05-29T10:04:01;100834.88;;;17.28;55.85
74794;BME280;63320;50.768;6.724;2023-05-29T10:06:27;100838.03;;;17.47;55.58
74794;BME280;63320;50.768;6.724;2023-05-29T10:08:54;100834.28;;;17.50;55.33
74794;BME280;63320;50.768;6.724;2023-05-29T10:11:21;100837.00;;;17.35;56.16
74794;BME280;63320;50.768;6.724;2023-05-29T10:13:47;100846.09;;;17.46;55.16
74794;BME280;63320;50.768;6.724;2023-05-29T10:16:15;100844.84;;;17.24;56.25
74794;BME280;63320;50.768;6.724;2023-05-29T10:18:43;100838.88;;;17.21;56.72
74794;BME280;63320;50.768;6.724;2023-05-29T10:21:11;100843.66;;;17.43;56.55
74794;BME280;63320;50.768;6.724;2023-05-29T10:23:38;100848.97;;;17.55;55.21
74794;BME280;63320;50.768;6.724;2023-05-29T10:26:10;100846.22;;;17.57;55.33
74794;BME280;63320;50.768;6.724;2023-05-29T10:28:39;100857.31;;;17.64;55.67
74794;BME280;63320;50.768;6.724;2023-05-29T10:31:09;100848.38;;;17.65;55.25
74794;BME280;63320;50.768;6.724;2023-05-29T10:33:52;100861.97;;;17.60;56.51
74794;BME280;63320;50.768;6.724;2023-05-29T10:36:28;100851.94;;;17.78;54.74
74794;BME280;63320;50.768;6.724;2023-05-29T10:38:55;100860.69;;;17.93;53.96
74794;BME280;63320;50.768;6.724;2023-05-29T10:41:31;100850.78;;;17.95;53.85
74794;BME280;63320;50.768;6.724;2023-05-29T10:43:57;100851.97;;;18.03;54.13
74794;BME280;63320;50.768;6.724;2023-05-29T10:47:01;100851.66;;;18.08;52.98
74794;BME280;63320;50.768;6.724;2023-05-29T10:49:29;100851.41;;;18.11;53.92
74794;BME280;63320;50.768;6.724;2023-05-29T10:51:54;100842.78;;;17.95;54.61
74794;BME280;63320;50.768;6.724;2023-05-29T10:54:21;100838.03;;;18.13;54.60
74794;BME280;63320;50.768;6.724;2023-05-29T10:56:51;100841.38;;;18.40;52.63
74794;BME280;63320;50.768;6.724;2023-05-29T10:59:17;100832.97;;;18.46;52.59
74794;BME280;63320;50.768;6.724;2023-05-29T11:01:43;100833.41;;;18.40;53.83
74794;BME280;63320;50.768;6.724;2023-05-29T11:04:29;100829.97;;;18.51;52.84
74794;BME280;63320;50.768;6.724;2023-05-29T11:06:54;100833.06;;;18.45;52.82
74794;BME280;63320;50.768;6.724;2023-05-29T11:09:27;100833.72;;;18.48;53.21
74794;BME280;63320;50.768;6.724;2023-05-29T11:12:11;100842.88;;;18.44;52.56
74794;BME280;63320;50.768;6.724;2023-05-29T11:14:44;100836.00;;;18.66;52.93
74794;BME280;63320;50.768;6.724;2023-05-29T11:17:28;100830.25;;;18.72;52.23
74794;BME280;63320;50.768;6.724;2023-05-29T11:19:56;100823.66;;;18.64;53.16
74794;BME280;63320;50.768;6.724;2023-05-29T11:22:26;100827.84;;;18.69;52.69
74794;BME280;63320;50.768;6.724;2023-05-29T11:24:53;100835.59;;;18.72;51.90
74794;BME280;63320;50.768;6.724;2023-05-29T11:27:20;100829.38;;;18.84;51.94
74794;BME280;63320;50.768;6.724;2023-05-29T11:29:48;100824.91;;;18.84;51.37
74794;BME280;63320;50.768;6.724;2023-05-29T11:32:14;100816.53;;;18.78;52.24
74794;BME280;63320;50.768;6.724;2023-05-29T11:34:43;100822.41;;;18.94;52.52
74794;BME280;63320;50.768;6.724;2023-05-29T11:37:11;100822.59;;;19.04;51.80
74794;BME280;63320;50.768;6.724;2023-05-29T11:39:37;100822.94;;;19.23;50.87
74794;BME280;63320;50.768;6.724;2023-05-29T11:42:02;100814.06;;;19.23;50.89
74794;BME280;63320;50.768;6.724;2023-05-29T11:44:28;100816.94;;;19.08;51.10
74794;BME280;63320;50.768;6.724;2023-05-29T11:47:00;100814.19;;;18.97;51.62
74794;BME280;63320;50.768;6.724;2023-05-29T11:49:28;100808.59;;;19.13;51.43
74794;BME280;63320;50.768;6.724;2023-05-29T11:51:53;100811.13;;;19.14;52.39
74794;BME280;63320;50.768;6.724;2023-05-29T11:54:20;100806.78;;;19.13;51.93
74794;BME280;63320;50.768;6.724;2023-05-29T11:56:47;100805.16;;;19.35;51.73
74794;BME280;63320;50.768;6.724;2023-05-29T11:59:12;100802.09;;;19.28;51.97
74794;BME280;63320;50.768;6.724;2023-05-29T12:01:38;100796.97;;;19.14;51.91
74794;BME280;63320;50.768;6.724;2023-05-29T12:04:13;100806.09;;;19.58;50.97
74794;BME280;63320;50.768;6.724;2023-05-29T12:06:39;100804.06;;;19.73;49.71
74794;BME280;63320;50.768;6.724;2023-05-29T12:09:04;100807.22;;;19.66;49.26
74794;BME280;63320;50.768;6.724;2023-05-29T12:11:31;100799.97;;;19.45;49.83
74794;BME280;63320;50.768;6.724;2023-05-29T12:13:57;100809.44;;;19.84;50.15
74794;BME280;63320;50.768;6.724;2023-05-29T12:16:23;100806.06;;;20.04;49.28
74794;BME280;63320;50.768;6.724;2023-05-29T12:18:49;100807.22;;;19.66;49.37
74794;BME280;63320;50.768;6.724;2023-05-29T12:21:14;100803.88;;;19.98;49.81
74794;BME280;63320;50.768;6.724;2023-05-29T12:23:39;100796.81;;;19.97;49.11
74794;BME280;63320;50.768;6.724;2023-05-29T12:26:05;100791.50;;;20.20;48.43
74794;BME280;63320;50.768;6.724;2023-05-29T12:28:32;100790.88;;;20.27;49.68
74794;BME280;63320;50.768;6.724;2023-05-29T12:30:59;100786.28;;;20.52;47.75
74794;BME280;63320;50.768;6.724;2023-05-29T12:33:25;100787.41;;;20.49;47.62
74794;BME280;63320;50.768;6.724;2023-05-29T12:35:50;100789.94;;;20.28;48.92
74794;BME280;63320;50.768;6.724;2023-05-29T12:38:18;100784.47;;;20.30;49.10
74794;BME280;63320;50.768;6.724;2023-05-29T12:40:48;100791.59;;;20.74;47.94
74794;BME280;63320;50.768;6.724;2023-05-29T12:43:13;100786.66;;;20.58;47.68
74794;BME280;63320;50.768;6.724;2023-05-29T12:45:40;100790.97;;;20.82;47.63
74794;BME280;63320;50.768;6.724;2023-05-29T12:48:06;100787.31;;;20.83;48.43